Toyofukumaru — JD2177 — position and weather

sailwx.info

Track history (hours):
 
Tides and Currents Weather Stations Pressure Air Temp Water Temp Dewpoint Dewpoint Depression Visibility Wind Speed Wind Dir Waves Ship Positions

Toyofukumaru

Last reported at 2017-Apr-28 23:15 UTC. Time now 2017-Apr-30 08:58 UTC.
Position N 34°30' E 134°38'.

Length 165 m; draft 6.2 m.

Type: Cargo ship. MMSI: 431200688.

Date/timePositionNaut miles runAvg speedWind from/ knotsBaromVisibWave heightAir tempDewpointWater temp
2017-Apr-28 23:15N 34°30' E 134°38'520.2
2017-Apr-28 23:00N 34°32' E 134°44'1021.1
2017-Apr-28 22:30N 34°36' E 134°55'917.4
2017-Apr-28 22:00N 34°35' E 135°06'1121.0
2017-Apr-28 21:30N 34°25' E 135°02'1020.1
2017-Apr-28 21:00N 34°15' E 134°59'1020.1
2017-Apr-28 20:30N 34°05' E 134°59'231 7.5
2017-Apr-27 13:36N 34°59' E 139°32'519.8
2017-Apr-27 13:21N 35°02' E 139°37'719.9
2017-Apr-27 13:00N 35°06' E 139°43'815.6
2017-Apr-27 12:30N 35°14' E 139°46'612.5
2017-Apr-27 12:00N 35°19' E 139°43'510.4
2017-Apr-27 11:30N 35°23' E 139°39'0 0.0
2017-Apr-27 11:00N 35°23' E 139°39'0 0.0
2017-Apr-27 10:30N 35°23' E 139°39'0 0.0
2017-Apr-27 10:00N 35°23' E 139°39'0 0.0
2017-Apr-27 09:30N 35°23' E 139°39'0 0.0
2017-Apr-27 09:00N 35°23' E 139°39'0 0.0
2017-Apr-27 08:30N 35°23' E 139°39'0 0.0
2017-Apr-27 08:00N 35°23' E 139°39'0 0.0
2017-Apr-27 07:30N 35°23' E 139°39'0 0.0
2017-Apr-27 07:00N 35°23' E 139°39'0 0.3
2017-Apr-27 06:30N 35°24' E 139°39'613.0
2017-Apr-27 06:01N 35°27' E 139°46'1020.1
2017-Apr-27 05:31N 35°33' E 139°56'816.1
2017-Apr-27 05:01N 35°36' E 140°05'0 0.1
2017-Apr-26 23:44N 35°36' E 140°05'0 0.0
2017-Apr-26 20:38N 35°36' E 140°05'0 0.0
2017-Apr-26 20:24N 35°36' E 140°05'2 4.1
2017-Apr-26 20:00N 35°35' E 140°04'917.8
2017-Apr-26 19:31N 35°30' E 139°54'917.2
2017-Apr-26 19:00N 35°25' E 139°47'612.3
2017-Apr-26 18:30N 35°19' E 139°44'612.4
2017-Apr-26 18:00N 35°13' E 139°47'918.8
2017-Apr-26 17:30N 35°04' E 139°44'245 8.0
2017-Apr-25 10:54N 33°56' E 134°59'719.1
2017-Apr-25 10:30N 34°03' E 134°58'1019.0
2017-Apr-25 10:00N 34°13' E 134°59'917.6
2017-Apr-25 09:30N 34°22' E 134°59'918.4
2017-Apr-25 09:00N 34°31' E 135°02'713.1
2017-Apr-25 08:29N 34°37' E 134°59'919.7
2017-Apr-25 08:00N 34°33' E 134°49'  
2017-Apr-22 23:34N 34°33' E 134°45'121.2
2017-Apr-22 23:30N 34°33' E 134°47'1121.6
2017-Apr-22 23:01N 34°38' E 134°59'816.2
2017-Apr-22 22:31N 34°31' E 135°04'1220.6
2017-Apr-22 21:56N 34°20' E 135°01'919.8
2017-Apr-22 21:31N 34°11' E 134°59'1020.1
2017-Apr-22 21:00N 34°01' E 135°00'214 7.2
2017-Apr-21 15:26N 34°45' E 139°14'919.8
2017-Apr-21 14:59N 34°51' E 139°21'919.1
2017-Apr-21 14:31N 34°57' E 139°29'1918.8
2017-Apr-21 13:30N 35°11' E 139°45'612.0
2017-Apr-21 13:00N 35°17' E 139°45'713.5
2017-Apr-21 12:30N 35°23' E 139°41'2 3.2
2017-Apr-21 11:59N 35°23' E 139°39'0 0.0
2017-Apr-21 11:29N 35°23' E 139°39'0 0.0
2017-Apr-21 10:59N 35°23' E 139°39'0 0.0
2017-Apr-21 10:29N 35°23' E 139°39'0 0.0
2017-Apr-21 09:59N 35°23' E 139°39'0 0.0
2017-Apr-21 09:29N 35°23' E 139°39'0 0.0
2017-Apr-21 08:59N 35°23' E 139°39'0 0.0
2017-Apr-21 08:29N 35°23' E 139°39'0 0.0
2017-Apr-21 07:59N 35°23' E 139°39'0 0.0
2017-Apr-21 07:29N 35°23' E 139°39'0 0.0
2017-Apr-21 06:59N 35°23' E 139°39'0 0.0
2017-Apr-21 06:29N 35°23' E 139°39'0 0.0
2017-Apr-21 05:59N 35°23' E 139°39'0 0.0
2017-Apr-21 05:31N 35°23' E 139°39'2 3.2
2017-Apr-21 05:00N 35°23' E 139°41'1020.2
2017-Apr-21 04:30N 35°29' E 139°51'1019.3
2017-Apr-21 04:00N 35°34' E 140°01'4 7.4
2017-Apr-21 03:29N 35°36' E 140°05'0 0.0
2017-Apr-21 02:01N 35°36' E 140°05'0 0.0
2017-Apr-21 02:00N 35°36' E 140°05'0 0.0
2017-Apr-21 01:30N 35°36' E 140°05'0 0.0
2017-Apr-20 23:08N 35°36' E 140°05'0 0.0
2017-Apr-20 22:34N 35°36' E 140°05'0 0.1
2017-Apr-20 22:29N 35°36' E 140°05'0 0.0
2017-Apr-20 21:58N 35°36' E 140°05'0 0.0
2017-Apr-20 21:30N 35°36' E 140°05'0 0.0
2017-Apr-20 21:00N 35°36' E 140°05'0 0.0
2017-Apr-20 20:26N 35°36' E 140°05'2 4.6
2017-Apr-20 20:00N 35°35' E 140°03'918.0
2017-Apr-20 19:30N 35°30' E 139°54'816.6
2017-Apr-20 19:00N 35°24' E 139°46'612.1
2017-Apr-20 18:30N 35°19' E 139°44'611.9
2017-Apr-20 18:00N 35°13' E 139°47'815.2
2017-Apr-20 17:30N 35°06' E 139°44'1019.4
2017-Apr-20 17:00N 34°59' E 139°35'1020.3
2017-Apr-20 16:30N 34°53' E 139°25'227 7.6
2017-Apr-19 10:41N 33°55' E 134°59'319.6
2017-Apr-19 10:30N 33°58' E 134°59'1020.0
2017-Apr-19 10:00N 34°08' E 134°58'1121.2
2017-Apr-19 09:29N 34°19' E 134°59'1020.3
2017-Apr-19 09:00N 34°29' E 135°02'816.9
2017-Apr-19 08:30N 34°37' E 135°00'1220.3
2017-Apr-19 07:54N 34°32' E 134°47'  
Track history (hours):
 
Tides and Currents Weather Stations Pressure Air Temp Water Temp Dewpoint Dewpoint Depression Visibility Wind Speed Wind Dir Waves Ship Positions

Toyofukumaru

Last reported at 2017-Apr-28 23:15 UTC. Time now 2017-Apr-30 08:58 UTC.
Position N 34°30' E 134°38'.

Length 165 m; draft 6.2 m.

Type: Cargo ship. MMSI: 431200688.

Date/timePositionNaut miles runAvg speedWind from/ knotsBaromVisibWave heightAir tempDewpointWater temp
2017-Apr-28 23:15N 34°30' E 134°38'520.2
2017-Apr-28 23:00N 34°32' E 134°44'1021.1
2017-Apr-28 22:30N 34°36' E 134°55'917.4
2017-Apr-28 22:00N 34°35' E 135°06'1121.0
2017-Apr-28 21:30N 34°25' E 135°02'1020.1
2017-Apr-28 21:00N 34°15' E 134°59'1020.1
2017-Apr-28 20:30N 34°05' E 134°59'231 7.5
2017-Apr-27 13:36N 34°59' E 139°32'519.8
2017-Apr-27 13:21N 35°02' E 139°37'719.9
2017-Apr-27 13:00N 35°06' E 139°43'815.6
2017-Apr-27 12:30N 35°14' E 139°46'612.5
2017-Apr-27 12:00N 35°19' E 139°43'510.4
2017-Apr-27 11:30N 35°23' E 139°39'0 0.0
2017-Apr-27 11:00N 35°23' E 139°39'0 0.0
2017-Apr-27 10:30N 35°23' E 139°39'0 0.0
2017-Apr-27 10:00N 35°23' E 139°39'0 0.0
2017-Apr-27 09:30N 35°23' E 139°39'0 0.0
2017-Apr-27 09:00N 35°23' E 139°39'0 0.0
2017-Apr-27 08:30N 35°23' E 139°39'0 0.0
2017-Apr-27 08:00N 35°23' E 139°39'0 0.0
2017-Apr-27 07:30N 35°23' E 139°39'0 0.0
2017-Apr-27 07:00N 35°23' E 139°39'0 0.3
2017-Apr-27 06:30N 35°24' E 139°39'613.0
2017-Apr-27 06:01N 35°27' E 139°46'1020.1
2017-Apr-27 05:31N 35°33' E 139°56'816.1
2017-Apr-27 05:01N 35°36' E 140°05'0 0.1
2017-Apr-26 23:44N 35°36' E 140°05'0 0.0
2017-Apr-26 20:38N 35°36' E 140°05'0 0.0
2017-Apr-26 20:24N 35°36' E 140°05'2 4.1
2017-Apr-26 20:00N 35°35' E 140°04'917.8
2017-Apr-26 19:31N 35°30' E 139°54'917.2
2017-Apr-26 19:00N 35°25' E 139°47'612.3
2017-Apr-26 18:30N 35°19' E 139°44'612.4
2017-Apr-26 18:00N 35°13' E 139°47'918.8
2017-Apr-26 17:30N 35°04' E 139°44'245 8.0
2017-Apr-25 10:54N 33°56' E 134°59'719.1
2017-Apr-25 10:30N 34°03' E 134°58'1019.0
2017-Apr-25 10:00N 34°13' E 134°59'917.6
2017-Apr-25 09:30N 34°22' E 134°59'918.4
2017-Apr-25 09:00N 34°31' E 135°02'713.1
2017-Apr-25 08:29N 34°37' E 134°59'919.7
2017-Apr-25 08:00N 34°33' E 134°49'  
2017-Apr-22 23:34N 34°33' E 134°45'121.2
2017-Apr-22 23:30N 34°33' E 134°47'1121.6
2017-Apr-22 23:01N 34°38' E 134°59'816.2
2017-Apr-22 22:31N 34°31' E 135°04'1220.6
2017-Apr-22 21:56N 34°20' E 135°01'919.8
2017-Apr-22 21:31N 34°11' E 134°59'1020.1
2017-Apr-22 21:00N 34°01' E 135°00'214 7.2
2017-Apr-21 15:26N 34°45' E 139°14'919.8
2017-Apr-21 14:59N 34°51' E 139°21'919.1
2017-Apr-21 14:31N 34°57' E 139°29'1918.8
2017-Apr-21 13:30N 35°11' E 139°45'612.0
2017-Apr-21 13:00N 35°17' E 139°45'713.5
2017-Apr-21 12:30N 35°23' E 139°41'2 3.2
2017-Apr-21 11:59N 35°23' E 139°39'0 0.0
2017-Apr-21 11:29N 35°23' E 139°39'0 0.0
2017-Apr-21 10:59N 35°23' E 139°39'0 0.0
2017-Apr-21 10:29N 35°23' E 139°39'0 0.0
2017-Apr-21 09:59N 35°23' E 139°39'0 0.0
2017-Apr-21 09:29N 35°23' E 139°39'0 0.0
2017-Apr-21 08:59N 35°23' E 139°39'0 0.0
2017-Apr-21 08:29N 35°23' E 139°39'0 0.0
2017-Apr-21 07:59N 35°23' E 139°39'0 0.0
2017-Apr-21 07:29N 35°23' E 139°39'0 0.0
2017-Apr-21 06:59N 35°23' E 139°39'0 0.0
2017-Apr-21 06:29N 35°23' E 139°39'0 0.0
2017-Apr-21 05:59N 35°23' E 139°39'0 0.0
2017-Apr-21 05:31N 35°23' E 139°39'2 3.2
2017-Apr-21 05:00N 35°23' E 139°41'1020.2
2017-Apr-21 04:30N 35°29' E 139°51'1019.3
2017-Apr-21 04:00N 35°34' E 140°01'4 7.4
2017-Apr-21 03:29N 35°36' E 140°05'0 0.0
2017-Apr-21 02:01N 35°36' E 140°05'0 0.0
2017-Apr-21 02:00N 35°36' E 140°05'0 0.0
2017-Apr-21 01:30N 35°36' E 140°05'0 0.0
2017-Apr-20 23:08N 35°36' E 140°05'0 0.0
2017-Apr-20 22:34N 35°36' E 140°05'0 0.1
2017-Apr-20 22:29N 35°36' E 140°05'0 0.0
2017-Apr-20 21:58N 35°36' E 140°05'0 0.0
2017-Apr-20 21:30N 35°36' E 140°05'0 0.0
2017-Apr-20 21:00N 35°36' E 140°05'0 0.0
2017-Apr-20 20:26N 35°36' E 140°05'2 4.6
2017-Apr-20 20:00N 35°35' E 140°03'918.0
2017-Apr-20 19:30N 35°30' E 139°54'816.6
2017-Apr-20 19:00N 35°24' E 139°46'612.1
2017-Apr-20 18:30N 35°19' E 139°44'611.9
2017-Apr-20 18:00N 35°13' E 139°47'815.2
2017-Apr-20 17:30N 35°06' E 139°44'1019.4
2017-Apr-20 17:00N 34°59' E 139°35'1020.3
2017-Apr-20 16:30N 34°53' E 139°25'227 7.6
2017-Apr-19 10:41N 33°55' E 134°59'319.6
2017-Apr-19 10:30N 33°58' E 134°59'1020.0
2017-Apr-19 10:00N 34°08' E 134°58'1121.2
2017-Apr-19 09:29N 34°19' E 134°59'1020.3
2017-Apr-19 09:00N 34°29' E 135°02'816.9
2017-Apr-19 08:30N 34°37' E 135°00'1220.3
2017-Apr-19 07:54N 34°32' E 134°47'  

Dump ship's entire track history